Time;durP1;ratioP1;P1;durP2;ratioP2;P2;SDS_P1;SDS_P2;PMS_P1;PMS_P2;Temp;Humidity;BMP_temperature;BMP_pressure;BME280_temperature;BME280_humidity;BME280_pressure;Samples;Min_cycle;Max_cycle;Signal;HPM_P1;HPM_P2
2023/05/09 00:01:09;0.00;0.00;0.62;0.00;0.00;0.62;3.10;1.50;;;27.00;21.80;;;;;;2247252;61;20904;-64
2023/05/09 00:03:54;0.00;0.00;0.62;0.00;0.00;0.62;1.93;1.73;;;27.00;21.80;;;;;;2248637;61;20407;-62
2023/05/09 00:06:39;0.00;0.00;0.62;0.00;0.00;0.62;2.30;1.77;;;27.00;21.80;;;;;;2248616;61;20919;-62
2023/05/09 00:09:24;0.00;0.00;0.62;0.00;0.00;0.62;2.10;1.80;;;27.00;21.80;;;;;;2247583;61;20836;-62
2023/05/09 00:12:10;0.00;0.00;0.62;0.00;0.00;0.62;2.43;2.07;;;27.00;21.80;;;;;;2248591;61;20367;-62
2023/05/09 00:14:56;0.00;0.00;0.62;0.00;0.00;0.62;1.93;1.63;;;27.00;21.80;;;;;;2248701;61;20375;-62
2023/05/09 00:17:43;0.00;0.00;0.62;0.00;0.00;0.62;2.10;1.30;;;27.00;21.80;;;;;;2248090;61;20364;-64
2023/05/09 00:20:28;0.00;0.00;0.62;0.00;0.00;0.62;1.90;1.70;;;27.00;21.80;;;;;;2248373;61;20387;-64
2023/05/09 00:23:12;0.00;0.00;0.62;0.00;0.00;0.62;2.20;1.90;;;27.00;21.80;;;;;;2247951;61;20920;-62
2023/05/09 00:25:58;0.00;0.00;0.62;0.00;0.00;0.62;2.63;1.70;;;27.00;21.80;;;;;;2248490;61;20372;-61
2023/05/09 00:28:43;0.00;0.00;0.62;0.00;0.00;0.62;1.80;1.40;;;27.00;21.80;;;;;;2248542;61;20359;-62
2023/05/09 00:31:27;0.00;0.00;0.62;0.00;0.00;0.62;4.30;1.83;;;27.00;21.80;;;;;;2248022;61;20442;-62
2023/05/09 00:34:14;0.00;0.00;0.62;0.00;0.00;0.62;1.83;1.33;;;27.00;21.80;;;;;;2248082;61;20419;-62
2023/05/09 00:36:59;0.00;0.00;0.62;0.00;0.00;0.62;1.80;1.47;;;26.90;21.70;;;;;;2249479;61;20367;-62
2023/05/09 00:39:44;0.00;0.00;0.62;0.00;0.00;0.62;2.57;2.20;;;27.00;21.80;;;;;;2248166;61;20395;-62
2023/05/09 00:42:29;0.00;0.00;0.62;0.00;0.00;0.62;2.00;1.70;;;26.90;21.80;;;;;;2249141;61;20822;-62
2023/05/09 00:45:14;0.00;0.00;0.62;0.00;0.00;0.62;3.67;1.90;;;26.90;21.80;;;;;;2249205;61;20368;-62
2023/05/09 00:47:59;0.00;0.00;0.62;0.00;0.00;0.62;2.37;1.53;;;26.90;21.70;;;;;;2249332;61;20359;-65
2023/05/09 00:50:47;0.00;0.00;0.62;0.00;0.00;0.62;2.50;1.60;;;26.90;21.70;;;;;;2248979;61;20407;-66
2023/05/09 00:53:31;0.00;0.00;0.62;0.00;0.00;0.62;2.20;1.53;;;26.90;21.70;;;;;;2248245;61;20367;-62
2023/05/09 00:56:16;0.00;0.00;0.62;0.00;0.00;0.62;2.30;1.63;;;26.90;21.70;;;;;;2249275;61;20779;-62
2023/05/09 00:59:01;0.00;0.00;0.62;0.00;0.00;0.62;2.10;1.60;;;26.90;21.70;;;;;;2248763;61;20399;-62
2023/05/09 01:01:46;0.00;0.00;0.62;0.00;0.00;0.62;2.30;1.60;;;26.90;21.70;;;;;;2247982;61;20732;-61
2023/05/09 01:04:31;0.00;0.00;0.62;0.00;0.00;0.62;2.63;1.70;;;26.90;21.70;;;;;;2248889;61;20447;-61
2023/05/09 01:07:29;0.00;0.00;0.62;0.00;0.00;0.62;3.80;2.07;;;26.90;21.70;;;;;;2248623;61;20390;-62
2023/05/09 01:10:30;0.00;0.00;0.62;0.00;0.00;0.62;2.10;1.70;;;26.90;21.70;;;;;;2248788;61;20391;-64
2023/05/09 01:13:26;0.00;0.00;0.62;0.00;0.00;0.62;2.33;1.77;;;26.90;21.70;;;;;;2249068;61;20399;-62
2023/05/09 01:16:22;0.00;0.00;0.62;0.00;0.00;0.62;2.07;1.60;;;26.90;21.70;;;;;;2248342;61;20348;-62
2023/05/09 01:19:32;0.00;0.00;0.62;0.00;0.00;0.62;2.60;1.67;;;26.80;21.70;;;;;;2248310;61;20434;-62
2023/05/09 01:22:23;0.00;0.00;0.62;0.00;0.00;0.62;2.33;2.03;;;26.90;21.70;;;;;;2248496;61;20855;-62
2023/05/09 01:25:53;0.00;0.00;0.62;0.00;0.00;0.62;2.03;1.63;;;26.80;21.70;;;;;;2248894;61;20371;-63
2023/05/09 01:29:03;0.00;0.00;0.62;0.00;0.00;0.62;2.37;1.87;;;26.80;21.70;;;;;;2248133;61;20463;-62
2023/05/09 01:31:50;0.00;0.00;0.62;0.00;0.00;0.62;1.97;1.70;;;26.80;21.70;;;;;;2248618;61;20490;-62
2023/05/09 01:34:39;0.00;0.00;0.62;0.00;0.00;0.62;3.03;1.73;;;26.80;21.70;;;;;;2249011;61;20411;-63
2023/05/09 01:37:30;0.00;0.00;0.62;0.00;0.00;0.62;1.90;1.70;;;26.80;21.70;;;;;;2248735;61;20379;-62
2023/05/09 01:40:19;0.00;0.00;0.62;0.00;0.00;0.62;2.30;1.73;;;26.80;21.70;;;;;;2248308;61;20404;-63
2023/05/09 01:43:08;0.00;0.00;0.62;0.00;0.00;0.62;2.60;1.50;;;26.80;21.70;;;;;;2248370;61;20844;-62
2023/05/09 01:45:55;0.00;0.00;0.62;0.00;0.00;0.62;2.13;1.50;;;26.80;21.70;;;;;;2247697;61;20372;-62
2023/05/09 01:48:43;0.00;0.00;0.62;0.00;0.00;0.62;2.27;1.70;;;26.80;21.60;;;;;;2248945;61;20944;-63
2023/05/09 01:51:30;0.00;0.00;0.62;0.00;0.00;0.62;1.80;1.60;;;26.80;21.60;;;;;;2249137;61;20406;-60
2023/05/09 01:54:16;0.00;0.00;0.62;0.00;0.00;0.62;2.47;1.63;;;26.80;21.70;;;;;;2248777;61;20419;-62
2023/05/09 01:57:03;0.00;0.00;0.62;0.00;0.00;0.62;2.10;1.80;;;26.80;21.70;;;;;;2249133;61;20368;-63
2023/05/09 02:03:03;0.00;0.00;0.62;0.00;0.00;0.62;2.10;1.60;;;26.80;21.70;;;;;;2257840;61;20386;-62
2023/05/09 02:05:49;0.00;0.00;0.62;0.00;0.00;0.62;2.30;2.10;;;26.80;21.60;;;;;;2256926;61;20878;-61
2023/05/09 02:08:34;0.00;0.00;0.62;0.00;0.00;0.62;2.47;1.57;;;26.80;21.60;;;;;;2258645;61;20861;-62
2023/05/09 02:11:20;0.00;0.00;0.62;0.00;0.00;0.62;2.30;1.77;;;26.80;21.70;;;;;;2252722;61;20841;-62
2023/05/09 02:14:05;0.00;0.00;0.62;0.00;0.00;0.62;2.17;1.67;;;26.70;21.60;;;;;;2252268;61;20374;-63
2023/05/09 02:16:50;0.00;0.00;0.62;0.00;0.00;0.62;2.17;1.37;;;26.70;22.10;;;;;;2252534;61;20410;-62
2023/05/09 02:19:50;0.00;0.00;0.62;0.00;0.00;0.62;3.30;2.07;;;26.70;21.60;;;;;;2263147;40;20432;-62
2023/05/09 02:22:36;0.00;0.00;0.62;0.00;0.00;0.62;1.97;1.70;;;26.70;21.60;;;;;;2262237;61;20455;-62
2023/05/09 02:25:22;0.00;0.00;0.62;0.00;0.00;0.62;2.40;1.93;;;26.70;21.60;;;;;;2260487;61;20419;-62
2023/05/09 02:28:08;0.00;0.00;0.62;0.00;0.00;0.62;1.80;1.50;;;26.70;21.60;;;;;;2260766;61;20380;-67
2023/05/09 02:30:55;0.00;0.00;0.62;0.00;0.00;0.62;2.47;1.77;;;26.70;21.60;;;;;;2259742;61;20384;-62
2023/05/09 02:33:41;0.00;0.00;0.62;0.00;0.00;0.62;2.13;1.37;;;26.70;21.60;;;;;;2260821;61;20529;-62
2023/05/09 02:36:27;0.00;0.00;0.62;0.00;0.00;0.62;2.27;1.57;;;26.70;21.60;;;;;;2260536;61;20365;-62
2023/05/09 02:39:13;0.00;0.00;0.62;0.00;0.00;0.62;2.20;2.00;;;26.70;21.60;;;;;;2260282;61;20969;-62
2023/05/09 02:42:07;0.00;0.00;0.62;0.00;0.00;0.62;2.07;1.63;;;26.70;21.60;;;;;;2261057;61;20365;-62
2023/05/09 02:44:52;0.00;0.00;0.62;0.00;0.00;0.62;2.30;2.10;;;26.70;21.60;;;;;;2260205;61;20910;-64
2023/05/09 02:47:37;0.00;0.00;0.62;0.00;0.00;0.62;2.00;1.80;;;26.70;21.60;;;;;;2260779;61;20361;-62
2023/05/09 02:53:05;0.00;0.00;0.62;0.00;0.00;0.62;2.00;1.50;;;26.60;21.50;;;;;;2253832;61;20372;-62
2023/05/09 02:55:52;0.00;0.00;0.62;0.00;0.00;0.62;2.30;1.70;;;26.60;21.50;;;;;;2252821;61;20379;-62
2023/05/09 02:58:37;0.00;0.00;0.62;0.00;0.00;0.62;1.93;1.60;;;26.60;21.50;;;;;;2254373;61;20411;-62
2023/05/09 03:01:22;0.00;0.00;0.62;0.00;0.00;0.62;2.10;1.53;;;26.60;21.50;;;;;;2248231;61;20896;-63
2023/05/09 03:04:07;0.00;0.00;0.62;0.00;0.00;0.62;3.50;2.20;;;26.60;21.50;;;;;;2248930;61;20367;-62
2023/05/09 03:06:52;0.00;0.00;0.62;0.00;0.00;0.62;2.43;1.83;;;26.60;21.50;;;;;;2248175;61;20364;-64
2023/05/09 03:09:37;0.00;0.00;0.62;0.00;0.00;0.62;2.00;1.77;;;26.60;21.50;;;;;;2250762;61;20438;-61
2023/05/09 03:12:23;0.00;0.00;0.62;0.00;0.00;0.62;2.70;2.10;;;26.60;21.50;;;;;;2248794;61;20368;-62
2023/05/09 03:15:11;0.00;0.00;0.62;0.00;0.00;0.62;1.97;1.77;;;26.60;21.50;;;;;;2247845;61;20364;-62
2023/05/09 03:17:58;0.00;0.00;0.62;0.00;0.00;0.62;2.90;1.80;;;26.60;21.50;;;;;;2251315;61;20367;-62
2023/05/09 03:23:33;0.00;0.00;0.62;0.00;0.00;0.62;2.27;2.07;;;26.60;21.50;;;;;;2258263;61;20520;-62
2023/05/09 03:26:18;0.00;0.00;0.62;0.00;0.00;0.62;2.43;2.10;;;26.50;21.50;;;;;;2256724;61;20769;-62
2023/05/09 03:29:04;0.00;0.00;0.62;0.00;0.00;0.62;2.00;1.60;;;26.60;21.50;;;;;;2255418;61;20413;-62
2023/05/09 03:31:49;0.00;0.00;0.62;0.00;0.00;0.62;2.00;1.53;;;26.60;21.50;;;;;;2256876;61;20797;-62
2023/05/09 03:34:34;0.00;0.00;0.62;0.00;0.00;0.62;2.47;2.10;;;26.60;21.50;;;;;;2256796;61;20831;-63
2023/05/09 03:37:19;0.00;0.00;0.62;0.00;0.00;0.62;2.10;1.60;;;26.60;21.50;;;;;;2255559;61;20361;-64
2023/05/09 03:40:07;0.00;0.00;0.62;0.00;0.00;0.62;2.53;1.97;;;26.60;21.50;;;;;;2255752;61;20436;-60
2023/05/09 03:42:58;0.00;0.00;0.62;0.00;0.00;0.62;2.40;1.97;;;26.50;21.40;;;;;;2255751;61;20404;-62
2023/05/09 03:45:45;0.00;0.00;0.62;0.00;0.00;0.62;2.07;1.87;;;26.50;21.50;;;;;;2256292;61;20381;-60
2023/05/09 03:48:31;0.00;0.00;0.62;0.00;0.00;0.62;2.50;2.30;;;26.50;21.40;;;;;;2256372;61;20362;-62
2023/05/09 03:51:16;0.00;0.00;0.62;0.00;0.00;0.62;2.50;2.20;;;26.50;21.40;;;;;;2255565;61;20393;-62
2023/05/09 03:54:02;0.00;0.00;0.62;0.00;0.00;0.62;2.50;2.00;;;26.50;21.40;;;;;;2256277;61;20440;-62
2023/05/09 03:56:47;0.00;0.00;0.62;0.00;0.00;0.62;2.60;2.00;;;26.50;21.40;;;;;;2256106;61;20897;-62
2023/05/09 03:59:32;0.00;0.00;0.62;0.00;0.00;0.62;3.77;2.00;;;26.50;21.40;;;;;;2255088;61;20385;-62
2023/05/09 04:02:20;0.00;0.00;0.62;0.00;0.00;0.62;3.30;2.07;;;26.50;21.40;;;;;;2256555;61;20361;-61
2023/05/09 04:05:05;0.00;0.00;0.62;0.00;0.00;0.62;2.30;2.00;;;26.50;21.50;;;;;;2256020;61;20557;-62
2023/05/09 04:07:51;0.00;0.00;0.62;0.00;0.00;0.62;2.43;2.03;;;26.50;21.40;;;;;;2259018;61;20461;-62
2023/05/09 04:10:36;0.00;0.00;0.62;0.00;0.00;0.62;2.20;1.80;;;26.50;21.40;;;;;;2255629;61;20540;-64
2023/05/09 04:13:22;0.00;0.00;0.62;0.00;0.00;0.62;2.37;1.80;;;26.50;21.40;;;;;;2255684;61;20492;-64
2023/05/09 04:16:07;0.00;0.00;0.62;0.00;0.00;0.62;2.00;1.70;;;26.50;21.40;;;;;;2256229;61;20358;-63
2023/05/09 04:18:54;0.00;0.00;0.62;0.00;0.00;0.62;2.90;2.10;;;26.50;21.40;;;;;;2255752;61;20397;-62
2023/05/09 04:21:39;0.00;0.00;0.62;0.00;0.00;0.62;3.37;2.00;;;26.40;21.40;;;;;;2255482;61;20370;-62
2023/05/09 04:24:24;0.00;0.00;0.62;0.00;0.00;0.62;2.40;2.10;;;26.40;21.40;;;;;;2256104;61;20773;-62
2023/05/09 04:27:09;0.00;0.00;0.62;0.00;0.00;0.62;1.90;1.70;;;26.40;21.40;;;;;;2255902;61;20475;-62
2023/05/09 04:29:54;0.00;0.00;0.62;0.00;0.00;0.62;2.00;1.70;;;26.40;21.40;;;;;;2255362;61;20528;-64
2023/05/09 04:32:39;0.00;0.00;0.62;0.00;0.00;0.62;2.53;1.97;;;26.40;21.40;;;;;;2255777;61;20374;-62
2023/05/09 04:35:26;0.00;0.00;0.62;0.00;0.00;0.62;2.37;2.17;;;26.40;21.40;;;;;;2255433;61;20365;-62
2023/05/09 04:38:12;0.00;0.00;0.62;0.00;0.00;0.62;2.30;2.00;;;26.40;21.40;;;;;;2255882;61;20546;-62
2023/05/09 04:40:57;0.00;0.00;0.62;0.00;0.00;0.62;2.00;1.80;;;26.40;21.40;;;;;;2255740;61;20413;-62
2023/05/09 04:43:42;0.00;0.00;0.62;0.00;0.00;0.62;2.37;1.83;;;26.40;21.40;;;;;;2255618;61;20486;-64
2023/05/09 04:46:27;0.00;0.00;0.62;0.00;0.00;0.62;2.10;1.77;;;26.40;21.40;;;;;;2256105;61;20422;-62
2023/05/09 04:49:12;0.00;0.00;0.62;0.00;0.00;0.62;2.20;2.00;;;26.40;21.40;;;;;;2255824;61;20369;-62
2023/05/09 04:51:58;0.00;0.00;0.62;0.00;0.00;0.62;2.37;2.07;;;26.40;21.40;;;;;;2256500;61;20986;-62
2023/05/09 04:54:44;0.00;0.00;0.62;0.00;0.00;0.62;2.67;1.97;;;26.40;21.40;;;;;;2255891;61;20409;-62
2023/05/09 04:57:29;0.00;0.00;0.62;0.00;0.00;0.62;2.00;1.40;;;26.30;21.40;;;;;;2255518;61;20389;-62
2023/05/09 05:00:17;0.00;0.00;0.62;0.00;0.00;0.62;2.40;2.20;;;26.30;21.40;;;;;;2255434;61;20981;-62
2023/05/09 05:03:03;0.00;0.00;0.62;0.00;0.00;0.62;2.60;2.00;;;26.40;21.50;;;;;;2256084;61;20458;-62
2023/05/09 05:05:48;0.00;0.00;0.62;0.00;0.00;0.62;1.97;1.60;;;26.30;21.40;;;;;;2255648;61;20365;-62
2023/05/09 05:08:35;0.00;0.00;0.62;0.00;0.00;0.62;2.00;1.80;;;26.30;21.40;;;;;;2256156;61;20389;-62
2023/05/09 05:11:20;0.00;0.00;0.62;0.00;0.00;0.62;2.47;2.03;;;26.30;21.40;;;;;;2256095;61;20391;-62
2023/05/09 05:14:05;0.00;0.00;0.62;0.00;0.00;0.62;2.70;1.97;;;26.30;21.40;;;;;;2255741;61;20365;-64
2023/05/09 05:16:51;0.00;0.00;0.62;0.00;0.00;0.62;2.50;1.93;;;26.30;21.50;;;;;;2256058;61;20358;-61
2023/05/09 05:19:35;0.00;0.00;0.62;0.00;0.00;0.62;2.37;1.83;;;26.30;21.40;;;;;;2254885;61;20393;-62
2023/05/09 05:22:23;0.00;0.00;0.62;0.00;0.00;0.62;2.37;2.17;;;26.30;21.40;;;;;;2256338;61;20742;-62
2023/05/09 05:25:10;0.00;0.00;0.62;0.00;0.00;0.62;3.47;2.03;;;26.30;21.90;;;;;;2256861;61;20366;-64
2023/05/09 05:27:56;0.00;0.00;0.62;0.00;0.00;0.62;3.20;2.83;;;26.30;21.40;;;;;;2255882;61;20366;-62
2023/05/09 05:30:41;0.00;0.00;0.62;0.00;0.00;0.62;2.87;2.20;;;26.30;21.40;;;;;;2256814;61;20425;-64
2023/05/09 05:33:26;0.00;0.00;0.62;0.00;0.00;0.62;4.17;2.83;;;26.30;21.50;;;;;;2256733;61;20374;-61
2023/05/09 05:36:11;0.00;0.00;0.62;0.00;0.00;0.62;2.83;2.40;;;26.30;21.50;;;;;;2256114;61;20366;-62
2023/05/09 05:38:56;0.00;0.00;0.62;0.00;0.00;0.62;2.80;2.43;;;26.30;21.50;;;;;;2256801;61;20402;-62
2023/05/09 05:41:42;0.00;0.00;0.62;0.00;0.00;0.62;3.50;2.80;;;26.30;21.50;;;;;;2256606;61;20804;-64
2023/05/09 05:44:28;0.00;0.00;0.62;0.00;0.00;0.62;2.87;2.17;;;26.30;21.50;;;;;;2256706;61;20418;-65
2023/05/09 05:47:13;0.00;0.00;0.62;0.00;0.00;0.62;3.40;2.53;;;26.30;21.50;;;;;;2256667;61;20372;-62
2023/05/09 05:49:58;0.00;0.00;0.62;0.00;0.00;0.62;3.00;2.70;;;26.30;21.50;;;;;;2255433;61;20924;-62
2023/05/09 05:52:43;0.00;0.00;0.62;0.00;0.00;0.62;3.07;2.77;;;26.30;21.50;;;;;;2259569;61;20758;-63
2023/05/09 05:55:31;0.00;0.00;0.62;0.00;0.00;0.62;3.67;3.10;;;26.30;21.50;;;;;;2256657;61;20358;-62
2023/05/09 05:58:17;0.00;0.00;0.62;0.00;0.00;0.62;3.30;2.77;;;26.30;21.50;;;;;;2256225;61;20398;-62
2023/05/09 06:01:02;0.00;0.00;0.62;0.00;0.00;0.62;3.10;2.80;;;26.30;21.50;;;;;;2256128;61;20409;-61
2023/05/09 06:03:53;0.00;0.00;0.62;0.00;0.00;0.62;3.30;3.00;;;26.30;21.50;;;;;;2256120;61;20366;-62
2023/05/09 06:06:39;0.00;0.00;0.62;0.00;0.00;0.62;3.47;3.17;;;26.30;21.50;;;;;;2259447;61;20420;-62
2023/05/09 06:09:24;0.00;0.00;0.62;0.00;0.00;0.62;4.10;3.70;;;26.30;21.50;;;;;;2256288;61;20432;-65
2023/05/09 06:12:10;0.00;0.00;0.62;0.00;0.00;0.62;4.70;3.90;;;26.30;21.50;;;;;;2256499;61;20362;-64
2023/05/09 06:14:57;0.00;0.00;0.62;0.00;0.00;0.62;4.40;3.50;;;26.30;21.50;;;;;;2256674;61;20413;-63
2023/05/09 06:17:42;0.00;0.00;0.62;0.00;0.00;0.62;3.73;3.30;;;26.30;21.50;;;;;;2256510;61;20421;-62
2023/05/09 06:20:26;0.00;0.00;0.62;0.00;0.00;0.62;3.80;3.07;;;26.30;21.50;;;;;;2255344;61;20469;-61
2023/05/09 06:23:11;0.00;0.00;0.62;0.00;0.00;0.62;3.30;3.00;;;26.30;21.50;;;;;;2256519;61;20358;-62
2023/05/09 06:25:56;0.00;0.00;0.62;0.00;0.00;0.62;3.90;3.50;;;26.30;21.50;;;;;;2256694;61;20723;-63
2023/05/09 06:28:40;0.00;0.00;0.62;0.00;0.00;0.62;4.33;3.63;;;26.30;21.50;;;;;;2256788;61;20509;-61
2023/05/09 06:31:27;0.00;0.00;0.62;0.00;0.00;0.62;3.10;2.80;;;26.30;21.50;;;;;;2257002;61;20501;-62
2023/05/09 06:34:11;0.00;0.00;0.62;0.00;0.00;0.62;3.57;3.27;;;26.30;21.50;;;;;;2256155;61;20424;-62
2023/05/09 06:36:56;0.00;0.00;0.62;0.00;0.00;0.62;4.17;3.57;;;26.30;21.50;;;;;;2256923;61;20362;-61
2023/05/09 06:39:41;0.00;0.00;0.62;0.00;0.00;0.62;3.17;2.83;;;26.30;21.50;;;;;;2256244;61;20393;-62
2023/05/09 06:42:27;0.00;0.00;0.62;0.00;0.00;0.62;3.83;3.20;;;26.30;21.50;;;;;;2256505;61;20797;-62
2023/05/09 06:45:12;0.00;0.00;0.62;0.00;0.00;0.62;3.40;2.93;;;26.30;21.50;;;;;;2256799;61;20407;-64
2023/05/09 06:47:57;0.00;0.00;0.62;0.00;0.00;0.62;4.10;3.70;;;26.30;21.50;;;;;;2256574;61;20374;-63
2023/05/09 06:50:42;0.00;0.00;0.62;0.00;0.00;0.62;3.33;3.00;;;26.30;21.50;;;;;;2256653;61;20885;-62
2023/05/09 06:53:26;0.00;0.00;0.62;0.00;0.00;0.62;4.27;3.37;;;26.30;21.50;;;;;;2256731;61;20402;-63
2023/05/09 06:56:12;0.00;0.00;0.62;0.00;0.00;0.62;3.53;3.23;;;26.30;21.50;;;;;;2256519;61;20392;-61
2023/05/09 06:58:57;0.00;0.00;0.62;0.00;0.00;0.62;4.50;3.03;;;26.30;21.50;;;;;;2256595;61;20444;-64
2023/05/09 07:01:42;0.00;0.00;0.62;0.00;0.00;0.62;4.03;3.57;;;26.30;21.50;;;;;;2256689;61;20398;-60
2023/05/09 07:04:28;0.00;0.00;0.62;0.00;0.00;0.62;3.50;3.20;;;26.30;21.60;;;;;;2256296;61;20440;-63
2023/05/09 07:07:13;0.00;0.00;0.62;0.00;0.00;0.62;4.30;3.40;;;26.30;21.60;;;;;;2256871;61;20393;-62
2023/05/09 07:09:59;0.00;0.00;0.62;0.00;0.00;0.62;3.30;3.00;;;26.30;21.50;;;;;;2256747;61;20900;-62
2023/05/09 07:12:44;0.00;0.00;0.62;0.00;0.00;0.62;3.70;3.10;;;26.30;21.50;;;;;;2256988;61;20444;-62
2023/05/09 07:15:29;0.00;0.00;0.62;0.00;0.00;0.62;4.27;3.30;;;26.30;21.50;;;;;;2256998;61;20358;-63
2023/05/09 07:18:14;0.00;0.00;0.62;0.00;0.00;0.62;3.50;3.20;;;26.30;21.50;;;;;;2256293;61;20366;-62
2023/05/09 07:21:00;0.00;0.00;0.62;0.00;0.00;0.62;4.63;3.83;;;26.30;21.50;;;;;;2256393;61;20424;-62
2023/05/09 07:23:44;0.00;0.00;0.62;0.00;0.00;0.62;3.87;3.20;;;26.30;21.50;;;;;;2256958;61;20361;-60
2023/05/09 07:26:29;0.00;0.00;0.62;0.00;0.00;0.62;3.83;3.53;;;26.30;21.50;;;;;;2256344;61;20519;-62
2023/05/09 07:29:14;0.00;0.00;0.62;0.00;0.00;0.62;4.07;3.67;;;26.30;21.60;;;;;;2256439;61;20786;-62
2023/05/09 07:31:58;0.00;0.00;0.62;0.00;0.00;0.62;3.93;3.60;;;26.30;21.50;;;;;;2257104;61;20361;-62
2023/05/09 07:34:43;0.00;0.00;0.62;0.00;0.00;0.62;3.47;3.00;;;26.30;21.50;;;;;;2256706;61;20393;-62
2023/05/09 07:37:29;0.00;0.00;0.62;0.00;0.00;0.62;3.87;3.47;;;26.30;21.50;;;;;;2257016;61;20374;-62
2023/05/09 07:40:14;0.00;0.00;0.62;0.00;0.00;0.62;4.70;3.70;;;26.30;21.60;;;;;;2256095;61;20414;-62
2023/05/09 07:42:59;0.00;0.00;0.62;0.00;0.00;0.62;4.00;3.60;;;26.30;21.50;;;;;;2256756;61;20377;-62
2023/05/09 07:45:45;0.00;0.00;0.62;0.00;0.00;0.62;4.50;3.50;;;26.30;21.50;;;;;;2256805;61;20358;-64
2023/05/09 07:48:30;0.00;0.00;0.62;0.00;0.00;0.62;3.97;3.57;;;26.40;21.60;;;;;;2256295;61;20397;-62
2023/05/09 07:51:15;0.00;0.00;0.62;0.00;0.00;0.62;3.97;3.57;;;26.40;21.60;;;;;;2256984;61;20428;-62
2023/05/09 07:54:01;0.00;0.00;0.62;0.00;0.00;0.62;4.40;3.27;;;26.30;21.50;;;;;;2256996;61;20369;-62
2023/05/09 07:56:46;0.00;0.00;0.62;0.00;0.00;0.62;3.93;3.53;;;26.40;21.60;;;;;;2256388;61;20412;-63
2023/05/09 07:59:30;0.00;0.00;0.62;0.00;0.00;0.62;3.60;3.30;;;26.40;21.60;;;;;;2256514;61;20428;-62
2023/05/09 08:02:15;0.00;0.00;0.62;0.00;0.00;0.62;4.27;3.87;;;26.40;21.60;;;;;;2255998;61;20463;-61
2023/05/09 08:04:59;0.00;0.00;0.62;0.00;0.00;0.62;3.13;2.83;;;26.40;21.60;;;;;;2257200;61;20613;-62
2023/05/09 08:07:45;0.00;0.00;0.62;0.00;0.00;0.62;3.57;3.00;;;26.40;21.60;;;;;;2257033;61;20636;-64
2023/05/09 08:10:32;0.00;0.00;0.62;0.00;0.00;0.62;4.60;3.57;;;26.40;21.60;;;;;;2255737;61;20413;-62
2023/05/09 08:13:17;0.00;0.00;0.62;0.00;0.00;0.62;4.60;3.63;;;26.40;21.60;;;;;;2256841;61;20373;-62
2023/05/09 08:16:03;0.00;0.00;0.62;0.00;0.00;0.62;4.70;3.77;;;26.40;21.60;;;;;;2256933;61;20905;-62
2023/05/09 08:18:48;0.00;0.00;0.62;0.00;0.00;0.62;3.80;3.40;;;26.40;21.60;;;;;;2256060;61;20864;-62
2023/05/09 08:21:32;0.00;0.00;0.62;0.00;0.00;0.62;3.80;3.23;;;26.40;21.60;;;;;;2256998;61;20401;-64
2023/05/09 08:24:17;0.00;0.00;0.62;0.00;0.00;0.62;3.30;2.93;;;26.40;21.60;;;;;;2258455;61;20770;-62
2023/05/09 08:27:03;0.00;0.00;0.62;0.00;0.00;0.62;5.13;3.10;;;26.40;21.60;;;;;;2257007;61;20832;-62
2023/05/09 08:29:47;0.00;0.00;0.62;0.00;0.00;0.62;3.30;3.00;;;26.40;21.60;;;;;;2256380;61;20956;-62
2023/05/09 08:32:32;0.00;0.00;0.62;0.00;0.00;0.62;3.67;3.17;;;26.40;21.60;;;;;;2256236;61;20374;-62
2023/05/09 08:35:17;0.00;0.00;0.62;0.00;0.00;0.62;4.07;3.20;;;26.40;21.60;;;;;;2256769;61;20378;-62
2023/05/09 08:38:02;0.00;0.00;0.62;0.00;0.00;0.62;3.60;3.00;;;26.40;21.70;;;;;;2256869;61;20401;-60
2023/05/09 08:40:47;0.00;0.00;0.62;0.00;0.00;0.62;3.17;2.60;;;26.40;21.60;;;;;;2255777;61;20394;-63
2023/05/09 08:43:34;0.00;0.00;0.62;0.00;0.00;0.62;3.40;2.70;;;26.40;21.70;;;;;;2256847;61;20409;-62
2023/05/09 08:46:26;0.00;0.00;0.62;0.00;0.00;0.62;3.50;2.97;;;26.40;21.70;;;;;;2256838;61;20776;-62
2023/05/09 08:49:11;0.00;0.00;0.62;0.00;0.00;0.62;3.67;3.00;;;26.40;21.70;;;;;;2256470;61;20406;-63
2023/05/09 08:51:57;0.00;0.00;0.62;0.00;0.00;0.62;3.17;2.87;;;26.40;21.70;;;;;;2256730;61;20816;-64
2023/05/09 08:54:43;0.00;0.00;0.62;0.00;0.00;0.62;4.73;3.43;;;26.30;21.60;;;;;;2256117;61;20413;-62
2023/05/09 08:57:27;0.00;0.00;0.62;0.00;0.00;0.62;4.50;3.50;;;26.40;21.70;;;;;;2257299;61;20365;-61
2023/05/09 09:00:16;0.00;0.00;0.62;0.00;0.00;0.62;3.30;2.73;;;26.40;21.70;;;;;;2256646;61;20448;-61
2023/05/09 09:03:02;0.00;0.00;0.62;0.00;0.00;0.62;4.07;3.53;;;26.40;21.70;;;;;;2256826;61;20369;-61
2023/05/09 09:05:50;0.00;0.00;0.62;0.00;0.00;0.62;3.33;2.70;;;26.40;21.70;;;;;;2257553;61;20388;-62
2023/05/09 09:08:35;0.00;0.00;0.62;0.00;0.00;0.62;3.87;3.10;;;26.40;21.80;;;;;;2256768;61;20423;-60
2023/05/09 09:11:21;0.00;0.00;0.62;0.00;0.00;0.62;2.70;2.50;;;26.40;21.70;;;;;;2257388;61;20857;-65
2023/05/09 09:14:15;0.00;0.00;0.62;0.00;0.00;0.62;4.10;3.00;;;26.40;21.70;;;;;;2257368;61;20365;-62
2023/05/09 09:17:01;0.00;0.00;0.62;0.00;0.00;0.62;2.77;2.57;;;26.40;21.80;;;;;;2256739;61;20902;-63
2023/05/09 09:19:53;0.00;0.00;0.62;0.00;0.00;0.62;2.70;2.50;;;26.40;21.80;;;;;;2258913;61;20499;-64
2023/05/09 09:22:42;0.00;0.00;0.62;0.00;0.00;0.62;3.00;2.50;;;26.40;21.80;;;;;;2257497;61;20361;-63
2023/05/09 09:25:26;0.00;0.00;0.62;0.00;0.00;0.62;2.63;2.27;;;26.40;21.80;;;;;;2256579;61;20394;-61
2023/05/09 09:28:11;0.00;0.00;0.62;0.00;0.00;0.62;2.90;2.63;;;26.40;21.80;;;;;;2257359;61;20362;-63
2023/05/09 09:30:56;0.00;0.00;0.62;0.00;0.00;0.62;2.60;2.40;;;26.40;21.80;;;;;;2256542;61;21098;-62
2023/05/09 09:33:43;0.00;0.00;0.62;0.00;0.00;0.62;2.83;2.53;;;26.40;21.80;;;;;;2257172;61;20378;-64
2023/05/09 09:36:29;0.00;0.00;0.62;0.00;0.00;0.62;3.60;2.97;;;26.40;21.80;;;;;;2257414;61;20793;-61
2023/05/09 09:39:14;0.00;0.00;0.62;0.00;0.00;0.62;2.47;2.17;;;26.40;21.80;;;;;;2256190;61;20452;-62
2023/05/09 09:42:10;0.00;0.00;0.62;0.00;0.00;0.62;3.37;2.90;;;26.40;21.90;;;;;;2257153;61;20361;-62
2023/05/09 09:45:01;0.00;0.00;0.62;0.00;0.00;0.62;3.00;2.70;;;26.40;21.90;;;;;;2257548;61;20361;-62
2023/05/09 09:47:47;0.00;0.00;0.62;0.00;0.00;0.62;2.97;2.50;;;26.40;21.90;;;;;;2257099;61;20372;-62
2023/05/09 09:50:33;0.00;0.00;0.62;0.00;0.00;0.62;2.97;2.67;;;26.40;21.90;;;;;;2256916;61;20381;-62
2023/05/09 09:53:19;0.00;0.00;0.62;0.00;0.00;0.62;2.47;2.23;;;26.40;21.90;;;;;;2256587;61;20362;-61
2023/05/09 09:56:05;0.00;0.00;0.62;0.00;0.00;0.62;2.93;2.63;;;26.40;21.90;;;;;;2257315;61;20366;-62
2023/05/09 09:59:08;0.00;0.00;0.62;0.00;0.00;0.62;2.70;2.50;;;26.50;21.90;;;;;;2256749;61;20408;-64
2023/05/09 10:01:55;0.00;0.00;0.62;0.00;0.00;0.62;2.60;2.37;;;26.50;22.00;;;;;;2256817;61;20368;-62
2023/05/09 10:04:42;0.00;0.00;0.62;0.00;0.00;0.62;2.70;2.50;;;26.50;22.00;;;;;;2257076;61;20357;-62
2023/05/09 10:07:34;0.00;0.00;0.62;0.00;0.00;0.62;2.90;2.60;;;26.50;22.00;;;;;;2257070;61;20358;-60
2023/05/09 10:10:19;0.00;0.00;0.62;0.00;0.00;0.62;2.93;2.50;;;26.50;22.00;;;;;;2256659;61;20471;-62
2023/05/09 10:13:06;0.00;0.00;0.62;0.00;0.00;0.62;2.77;2.57;;;26.50;22.00;;;;;;2257301;61;20417;-62
2023/05/09 10:15:51;0.00;0.00;0.62;0.00;0.00;0.62;2.57;2.30;;;26.50;22.00;;;;;;2256543;61;20358;-61
2023/05/09 10:18:38;0.00;0.00;0.62;0.00;0.00;0.62;2.30;2.10;;;26.50;22.00;;;;;;2257151;61;20429;-61
2023/05/09 10:21:23;0.00;0.00;0.62;0.00;0.00;0.62;2.53;2.30;;;26.50;22.00;;;;;;2257099;61;20370;-61
2023/05/09 10:24:10;0.00;0.00;0.62;0.00;0.00;0.62;2.50;2.30;;;26.50;22.00;;;;;;2256496;61;20363;-62
2023/05/09 10:27:04;0.00;0.00;0.62;0.00;0.00;0.62;2.30;2.10;;;26.50;22.00;;;;;;2257392;61;20370;-62
2023/05/09 10:30:00;0.00;0.00;0.62;0.00;0.00;0.62;2.70;2.33;;;26.60;22.10;;;;;;2256672;61;20382;-63
2023/05/09 10:32:53;0.00;0.00;0.62;0.00;0.00;0.62;2.80;2.30;;;26.60;22.10;;;;;;2257172;61;20408;-62
2023/05/09 10:35:44;0.00;0.00;0.62;0.00;0.00;0.62;2.40;2.20;;;26.60;22.70;;;;;;2257280;61;20362;-62
2023/05/09 10:38:30;0.00;0.00;0.62;0.00;0.00;0.62;2.87;2.30;;;26.60;22.10;;;;;;2256007;61;20353;-59
2023/05/09 10:41:20;0.00;0.00;0.62;0.00;0.00;0.62;2.20;2.00;;;26.60;22.10;;;;;;2256947;61;20354;-62
2023/05/09 10:44:05;0.00;0.00;0.62;0.00;0.00;0.62;2.77;2.47;;;26.60;22.20;;;;;;2257158;61;20362;-62
2023/05/09 10:46:51;0.00;0.00;0.62;0.00;0.00;0.62;2.63;2.20;;;26.60;22.20;;;;;;2256195;61;20365;-62
2023/05/09 10:49:36;0.00;0.00;0.62;0.00;0.00;0.62;2.00;1.80;;;26.60;22.20;;;;;;2256515;61;20377;-62
2023/05/09 10:52:22;0.00;0.00;0.62;0.00;0.00;0.62;2.27;2.00;;;26.60;22.20;;;;;;2256438;61;20361;-61
2023/05/09 10:55:08;0.00;0.00;0.62;0.00;0.00;0.62;2.30;1.97;;;26.70;22.20;;;;;;2256807;61;20370;-62
2023/05/09 10:57:54;0.00;0.00;0.62;0.00;0.00;0.62;2.30;2.10;;;26.70;22.20;;;;;;2257061;61;20381;-61
2023/05/09 11:00:41;0.00;0.00;0.62;0.00;0.00;0.62;2.20;1.93;;;26.70;22.30;;;;;;2255421;61;20399;-62
2023/05/09 11:03:28;0.00;0.00;0.62;0.00;0.00;0.62;2.60;2.27;;;26.70;22.30;;;;;;2256805;61;20401;-62
2023/05/09 11:06:39;0.00;0.00;0.62;0.00;0.00;0.62;2.23;1.97;;;26.70;22.30;;;;;;2256940;61;20512;-62